Time;durP1;ratioP1;P1;durP2;ratioP2;P2;SDS_P1;SDS_P2;PMS_P1;PMS_P2;Temp;Humidity;BMP_temperature;BMP_pressure;BME280_temperature;BME280_humidity;BME280_pressure;Samples;Min_cycle;Max_cycle;Signal;HPM_P1;HPM_P2
2023/10/24 00:01:58;;;;;;;25.60;13.75;;;;;;;9.05;100.00;100462.63;10416484;28;20049;-69
2023/10/24 00:06:58;;;;;;;27.52;14.18;;;;;;;9.03;100.00;100449.16;10417906;28;20045;-73
2023/10/24 00:11:58;;;;;;;25.77;13.73;;;;;;;9.04;100.00;100428.03;10416757;28;20038;-73
2023/10/24 00:16:59;;;;;;;30.90;14.98;;;;;;;9.06;100.00;100417.63;10416160;28;20120;-75
2023/10/24 00:22:00;;;;;;;32.33;15.45;;;;;;;9.05;100.00;100419.53;10415777;28;20046;-73
2023/10/24 00:27:00;;;;;;;31.30;15.48;;;;;;;9.09;100.00;100415.19;10416678;28;20045;-75
2023/10/24 00:32:00;;;;;;;27.23;14.68;;;;;;;9.12;100.00;100419.34;10417256;28;20034;-73
2023/10/24 00:37:01;;;;;;;28.23;14.93;;;;;;;9.16;100.00;100408.69;10417574;28;20045;-74
2023/10/24 00:42:02;;;;;;;29.88;14.48;;;;;;;9.17;100.00;100413.06;10416346;28;20095;-75
2023/10/24 00:47:03;;;;;;;31.25;15.07;;;;;;;9.17;100.00;100402.09;10414601;28;20033;-76
2023/10/24 00:52:03;;;;;;;27.58;14.50;;;;;;;9.19;100.00;100406.22;10413343;28;20033;-75
2023/10/24 00:57:04;;;;;;;29.05;15.02;;;;;;;9.22;100.00;100399.38;10414389;28;20037;-70
2023/10/24 01:02:04;;;;;;;30.35;14.80;;;;;;;9.19;100.00;100365.03;10396497;28;20053;-75
2023/10/24 01:07:05;;;;;;;28.35;15.38;;;;;;;9.27;100.00;100377.47;10398135;28;20053;-75
2023/10/24 01:12:06;;;;;;;32.95;15.38;;;;;;;9.04;100.00;100318.19;10414117;28;20051;-75
2023/10/24 01:17:13;;;;;;;31.85;15.05;;;;;;;9.32;100.00;100366.53;10415340;28;20057;-75
2023/10/24 01:22:13;;;;;;;;;;;;;;;9.34;100.00;100367.09;10414153;28;20041;-75
2023/10/24 01:27:14;;;;;;;33.12;14.46;;;;;;;9.35;100.00;100366.03;10415308;28;19921;-75
2023/10/24 01:32:14;;;;;;;32.85;17.77;;;;;;;9.36;100.00;100358.63;10413865;28;20041;-75
2023/10/24 01:37:15;;;;;;;35.63;17.60;;;;;;;9.36;100.00;100337.47;10416222;28;20457;-77
2023/10/24 01:42:15;;;;;;;31.83;16.65;;;;;;;9.38;100.00;100329.78;10414966;28;20042;-76
2023/10/24 01:47:15;;;;;;;42.08;17.63;;;;;;;9.42;100.00;100325.44;10414443;28;20093;-77
2023/10/24 01:52:16;;;;;;;36.30;18.48;;;;;;;9.42;100.00;100308.94;10408076;28;20438;-74
2023/10/24 01:57:16;;;;;;;40.10;19.08;;;;;;;9.44;100.00;100303.19;10412385;28;20501;-75
2023/10/24 02:02:17;;;;;;;38.95;18.67;;;;;;;9.46;100.00;100290.03;10413471;28;20041;-74
2023/10/24 02:07:19;;;;;;;38.85;20.23;;;;;;;9.48;100.00;100282.34;10414123;28;20049;-74
2023/10/24 02:12:20;;;;;;;39.30;20.05;;;;;;;9.49;100.00;100275.78;10414719;28;20183;-75
2023/10/24 02:17:20;;;;;;;44.75;19.27;;;;;;;9.49;100.00;100265.63;10407213;28;20070;-75
2023/10/24 02:22:21;;;;;;;48.45;21.35;;;;;;;9.54;100.00;100255.75;10413235;28;20144;-75
2023/10/24 02:27:21;;;;;;;41.05;20.80;;;;;;;9.54;100.00;100277.75;10411033;28;20513;-75
2023/10/24 02:32:22;;;;;;;48.80;21.85;;;;;;;9.57;100.00;100244.22;10416204;28;20072;-74
2023/10/24 02:37:22;;;;;;;47.45;21.45;;;;;;;9.55;100.00;100230.78;10422081;28;20033;-74
2023/10/24 02:42:23;;;;;;;50.38;21.63;;;;;;;9.59;100.00;100226.41;10420770;28;20042;-74
2023/10/24 02:47:23;;;;;;;50.00;22.25;;;;;;;9.63;100.00;100215.69;10419001;28;20041;-74
2023/10/24 02:52:23;;;;;;;48.63;20.95;;;;;;;9.68;100.00;100221.22;10435861;28;20033;-73
2023/10/24 02:57:24;;;;;;;46.30;20.75;;;;;;;9.44;100.00;100174.88;10421619;28;20053;-73
2023/10/24 03:02:24;;;;;;;45.75;20.23;;;;;;;9.75;100.00;100202.56;10419940;28;20064;-73
2023/10/24 03:07:25;;;;;;;47.33;21.00;;;;;;;9.79;100.00;100192.72;10418434;28;20050;-72
2023/10/24 03:12:25;;;;;;;49.83;22.65;;;;;;;9.82;100.00;100194.94;10417605;28;20068;-73
2023/10/24 03:17:26;;;;;;;52.08;21.88;;;;;;;9.82;100.00;100181.19;10419577;28;20041;-72
2023/10/24 03:22:26;;;;;;;49.72;23.63;;;;;;;9.87;100.00;100172.13;10418341;28;20060;-73
2023/10/24 03:27:27;;;;;;;51.38;21.65;;;;;;;9.87;100.00;100172.97;10416964;28;20038;-72
2023/10/24 03:32:27;;;;;;;47.55;22.02;;;;;;;9.76;100.00;100142.94;10419753;28;20034;-72
2023/10/24 03:37:28;;;;;;;48.08;23.35;;;;;;;9.91;100.00;100154.00;10417899;28;20034;-72
2023/10/24 03:42:30;;;;;;;45.08;22.55;;;;;;;9.71;100.00;100124.50;10418344;28;20067;-71
2023/10/24 03:47:30;;;;;;;57.15;24.38;;;;;;;9.94;100.00;100153.47;10418695;28;20048;-73
2023/10/24 03:52:31;;;;;;;52.42;23.95;;;;;;;9.94;100.00;100155.38;10418341;28;20040;-69
2023/10/24 03:57:31;;;;;;;49.13;22.45;;;;;;;9.96;100.00;100154.03;10418311;28;21995;-74
2023/10/24 04:02:32;;;;;;;54.85;24.88;;;;;;;9.97;100.00;100143.88;10410415;28;20048;-72
2023/10/24 04:07:32;;;;;;;63.30;26.08;;;;;;;9.90;100.00;100122.94;10418156;28;20468;-72
2023/10/24 04:12:33;;;;;;;54.78;25.40;;;;;;;10.02;100.00;100138.38;10417705;28;20053;-73
2023/10/24 04:17:33;;;;;;;65.35;27.08;;;;;;;10.07;100.00;100138.41;10416590;28;20038;-73
2023/10/24 04:22:34;;;;;;;59.35;25.45;;;;;;;9.89;100.00;100110.28;10411640;28;20037;-73
2023/10/24 04:27:35;;;;;;;70.32;28.05;;;;;;;10.14;100.00;100138.97;10415769;28;20049;-73
2023/10/24 04:32:35;;;;;;;61.58;28.65;;;;;;;10.16;100.00;100136.78;10415078;28;20544;-73
2023/10/24 04:37:36;;;;;;;58.50;27.88;;;;;;;10.19;100.00;100129.91;10415935;28;20049;-74
2023/10/24 04:42:36;;;;;;;81.20;31.45;;;;;;;10.20;100.00;100126.09;10416440;28;20382;-72
2023/10/24 04:47:37;;;;;;;70.32;31.23;;;;;;;10.23;100.00;100115.38;10414312;28;20509;-72
2023/10/24 04:52:37;;;;;;;70.13;30.40;;;;;;;10.26;100.00;100117.56;10413896;28;20045;-72
2023/10/24 04:57:38;;;;;;;74.80;31.27;;;;;;;10.28;100.00;100114.56;10414565;28;20045;-72
2023/10/24 05:02:38;;;;;;;66.72;28.83;;;;;;;10.32;100.00;100128.63;10415533;28;20049;-72
2023/10/24 05:07:39;;;;;;;59.47;27.58;;;;;;;10.35;100.00;100122.56;10414123;28;20049;-73
2023/10/24 05:12:39;;;;;;;71.63;27.88;;;;;;;10.38;100.00;100116.53;10415583;28;20051;-72
2023/10/24 05:17:40;;;;;;;58.08;27.38;;;;;;;10.39;100.00;100107.19;10404039;28;20048;-73
2023/10/24 05:22:40;;;;;;;52.70;25.05;;;;;;;10.39;100.00;100102.50;10413610;28;20042;-73
2023/10/24 05:27:41;;;;;;;60.67;25.90;;;;;;;10.43;100.00;100086.28;10414550;28;20041;-73
2023/10/24 05:32:41;;;;;;;52.90;24.80;;;;;;;10.43;100.00;100086.28;10416011;28;20045;-72
2023/10/24 05:37:42;;;;;;;59.97;24.63;;;;;;;10.37;100.00;100077.16;10414305;28;20099;-73
2023/10/24 05:42:44;;;;;;;81.72;25.67;;;;;;;10.35;100.00;100078.56;10412916;28;20048;-72
2023/10/24 05:47:44;;;;;;;52.03;24.17;;;;;;;10.35;100.00;100070.28;10413566;28;20038;-73
2023/10/24 05:52:45;;;;;;;64.72;24.10;;;;;;;10.35;100.00;100053.78;10414816;28;20099;-72
2023/10/24 05:57:46;;;;;;;54.08;23.65;;;;;;;10.31;100.00;100067.25;10415417;28;20568;-72
2023/10/24 06:02:46;;;;;;;54.28;24.25;;;;;;;10.19;100.00;100058.41;10415377;28;20034;-72
2023/10/24 06:07:47;;;;;;;56.95;23.77;;;;;;;9.97;100.00;100047.63;10404753;28;20042;-72
2023/10/24 06:12:47;;;;;;;63.88;24.70;;;;;;;9.93;100.00;100065.75;10419972;28;20038;-72
2023/10/24 06:17:48;;;;;;;52.22;23.65;;;;;;;9.93;100.00;100101.50;10420565;28;20458;-72
2023/10/24 06:22:48;;;;;;;53.85;24.05;;;;;;;9.89;100.00;100077.28;10421572;28;20056;-71
2023/10/24 06:27:48;;;;;;;54.30;24.30;;;;;;;9.90;100.00;100073.47;10420078;28;20045;-72
2023/10/24 06:32:49;;;;;;;62.50;23.65;;;;;;;9.88;100.00;100086.66;10420198;28;20034;-69
2023/10/24 06:37:50;;;;;;;54.53;23.70;;;;;;;9.87;100.00;100079.47;10420677;28;20050;-73
2023/10/24 06:42:51;;;;;;;52.40;25.40;;;;;;;9.93;100.00;100079.50;10419293;28;20129;-72
2023/10/24 06:47:51;;;;;;;54.30;24.30;;;;;;;10.02;100.00;100083.38;10417779;28;20492;-73
2023/10/24 06:52:52;;;;;;;50.38;23.40;;;;;;;9.50;100.00;99992.47;10420227;28;20045;-72
2023/10/24 06:57:52;;;;;;;67.78;25.25;;;;;;;10.15;100.00;100082.03;10402514;28;20046;-72
2023/10/24 07:02:53;;;;;;;50.70;22.85;;;;;;;10.20;100.00;100085.63;10420112;28;20041;-75
2023/10/24 07:07:53;;;;;;;54.03;24.98;;;;;;;10.28;100.00;100079.59;10418810;28;20061;-75
2023/10/24 07:12:54;;;;;;;48.50;23.23;;;;;;;10.28;100.00;100071.34;10413552;28;20042;-73
2023/10/24 07:17:54;;;;;;;45.58;20.77;;;;;;;10.28;100.00;100057.59;10415494;28;20038;-72
2023/10/24 07:22:55;;;;;;;45.47;22.77;;;;;;;10.46;100.00;100069.22;10419242;28;20034;-72
2023/10/24 07:27:57;;;;;;;47.42;22.80;;;;;;;10.52;100.00;100078.28;10419247;28;20037;-71
2023/10/24 07:32:58;;;;;;;36.28;18.60;;;;;;;10.54;100.00;100068.66;10419162;28;20061;-73
2023/10/24 07:37:58;;;;;;;47.85;21.85;;;;;;;10.60;100.00;100070.31;10417643;28;20064;-72
2023/10/24 07:42:59;;;;;;;40.10;19.75;;;;;;;10.57;100.00;100070.88;10414476;28;20053;-72
2023/10/24 07:48:00;;;;;;;30.85;16.80;;;;;;;10.64;100.00;100070.59;10417556;28;20068;-73
2023/10/24 07:53:00;;;;;;;37.67;18.50;;;;;;;10.67;100.00;100072.81;10418550;28;20029;-72
2023/10/24 07:58:00;;;;;;;29.88;16.08;;;;;;;10.62;100.00;100084.63;10418510;28;20430;-72
2023/10/24 08:03:01;;;;;;;32.30;16.70;;;;;;;10.70;100.00;100081.34;10413713;28;20029;-72
2023/10/24 08:08:01;;;;;;;31.13;16.73;;;;;;;10.77;100.00;100080.22;10415260;28;20100;-73
2023/10/24 08:13:02;;;;;;;33.03;17.13;;;;;;;10.84;100.00;100080.81;10416324;28;20132;-73
2023/10/24 08:18:02;;;;;;;32.22;15.95;;;;;;;10.89;100.00;100072.53;10416062;28;20052;-74
2023/10/24 08:23:03;;;;;;;33.25;16.45;;;;;;;10.97;100.00;100068.41;10416696;28;20038;-72
2023/10/24 08:28:04;;;;;;;29.55;14.77;;;;;;;11.00;100.00;100057.66;10416696;28;20048;-74
2023/10/24 08:33:04;;;;;;;30.92;16.52;;;;;;;11.03;100.00;100051.59;10415156;28;20470;-74
2023/10/24 08:38:05;;;;;;;28.60;14.73;;;;;;;11.10;100.00;100076.94;10417364;28;20052;-73
2023/10/24 08:43:05;;;;;;;28.08;14.73;;;;;;;11.13;100.00;100074.72;10412170;28;20034;-74
2023/10/24 08:48:06;;;;;;;26.88;13.30;;;;;;;11.05;100.00;100078.84;10412237;28;20049;-72
2023/10/24 08:53:06;;;;;;;23.38;12.63;;;;;;;11.11;100.00;100086.84;10428292;28;20041;-73
2023/10/24 08:58:08;;;;;;;22.27;12.68;;;;;;;11.16;100.00;100085.19;10414529;28;20044;-72
2023/10/24 09:03:08;;;;;;;20.10;12.00;;;;;;;11.16;100.00;100090.69;10409849;28;20049;-73
2023/10/24 09:08:08;;;;;;;18.17;10.55;;;;;;;11.17;100.00;100090.41;10412047;28;20048;-76
2023/10/24 09:13:09;;;;;;;23.00;11.80;;;;;;;11.16;100.00;100091.50;10410974;28;20105;-73
2023/10/24 09:18:09;;;;;;;19.20;11.65;;;;;;;11.18;100.00;100111.34;10413474;28;20048;-73
2023/10/24 09:23:11;;;;;;;18.50;11.88;;;;;;;11.15;100.00;100113.84;10415473;28;20113;-75
2023/10/24 09:28:18;;;;;;;20.75;11.60;;;;;;;11.06;100.00;100117.16;10415130;28;20042;-72
2023/10/24 09:33:18;;;;;;;19.35;12.02;;;;;;;11.00;100.00;100112.75;10412582;28;20076;-73
2023/10/24 09:38:20;;;;;;;19.40;11.50;;;;;;;11.03;100.00;100101.16;10414625;28;20037;-73
2023/10/24 09:43:23;;;;;;;19.63;12.82;;;;;;;11.31;100.00;100102.53;10417669;28;20577;-74
2023/10/24 09:48:24;;;;;;;15.45;9.55;;;;;;;11.48;100.00;100101.38;10422221;28;20084;-74
2023/10/24 09:53:24;;;;;;;12.70;8.27;;;;;;;11.73;100.00;100091.38;10421445;28;20550;-73
2023/10/24 09:58:25;;;;;;;12.60;8.80;;;;;;;11.93;100.00;100107.03;10421114;28;20095;-72
2023/10/24 10:03:25;;;;;;;11.93;7.65;;;;;;;11.91;100.00;100105.41;10420345;28;20037;-73
2023/10/24 10:08:26;;;;;;;13.27;7.70;;;;;;;11.95;100.00;100110.34;10403769;28;20049;-72
2023/10/24 10:13:30;;;;;;;11.35;7.97;;;;;;;11.91;100.00;100121.16;10395197;28;20038;-73
2023/10/24 10:18:49;;;;;;;9.95;7.32;;;;;;;11.87;100.00;100112.56;10419299;28;20065;-72
2023/10/24 10:24:17;;;;;;;13.85;7.10;;;;;;;11.83;100.00;100111.47;10429451;28;20038;-74
2023/10/24 10:29:34;;;;;;;10.50;6.63;;;;;;;11.78;100.00;100111.50;10419059;28;20559;-74
2023/10/24 10:34:36;;;;;;;9.85;6.93;;;;;;;11.71;100.00;100110.97;10419049;28;20056;-73
2023/10/24 10:39:36;;;;;;;9.15;6.47;;;;;;;11.61;100.00;100099.97;10419982;28;20073;-77
2023/10/24 10:44:42;;;;;;;9.45;6.25;;;;;;;11.61;100.00;100105.47;10420208;28;20041;-73
2023/10/24 10:49:48;;;;;;;10.60;6.60;;;;;;;11.63;100.00;100108.78;10416476;28;20073;-75
2023/10/24 10:55:12;;;;;;;9.70;6.80;;;;;;;11.73;100.00;100108.75;10429859;28;20033;-75
2023/10/24 11:00:13;;;;;;;10.40;5.90;;;;;;;11.68;100.00;100086.72;10432686;28;20034;-74
2023/10/24 11:05:46;;;;;;;12.30;7.57;;;;;;;11.71;100.00;100088.91;10415806;28;20041;-75
2023/10/24 11:10:57;;;;;;;8.18;5.68;;;;;;;11.65;100.00;100090.03;10416618;28;20363;-73
2023/10/24 11:16:00;;;;;;;7.95;5.97;;;;;;;11.66;100.00;100087.00;10433596;28;20038;-74
2023/10/24 11:21:02;;;;;;;9.32;6.85;;;;;;;11.73;100.00;100085.88;10419759;28;20061;-74
2023/10/24 11:26:03;;;;;;;11.38;7.05;;;;;;;11.73;100.00;100086.69;10417796;28;20030;-73
2023/10/24 11:31:19;;;;;;;10.57;6.60;;;;;;;11.71;100.00;100072.38;10419482;28;20041;-72
2023/10/24 11:36:20;;;;;;;12.57;7.15;;;;;;;11.76;100.00;100080.63;10418355;28;20060;-73
2023/10/24 11:41:21;;;;;;;10.13;6.60;;;;;;;11.88;100.00;100067.34;10418470;28;20072;-73
2023/10/24 11:46:21;;;;;;;8.45;6.43;;;;;;;11.95;100.00;100057.94;10417415;28;20037;-74
2023/10/24 11:51:22;;;;;;;10.48;6.70;;;;;;;11.94;100.00;100020.44;10417678;28;20466;-73
2023/10/24 11:56:22;;;;;;;9.52;6.35;;;;;;;12.18;100.00;100037.16;10400518;28;20029;-73
2023/10/24 12:01:24;;;;;;;11.35;6.72;;;;;;;12.34;100.00;100032.31;10417387;28;20410;-74
2023/10/24 12:06:28;;;;;;;10.05;6.72;;;;;;;12.34;100.00;100040.59;10418296;28;20061;-72
2023/10/24 12:11:28;;;;;;;8.68;5.93;;;;;;;12.34;100.00;100040.59;10416945;28;20041;-74
2023/10/24 12:16:29;;;;;;;8.45;6.28;;;;;;;12.30;100.00;100052.22;10415697;28;20045;-73
2023/10/24 12:21:30;;;;;;;10.88;6.65;;;;;;;12.16;100.00;100050.41;10409573;28;20546;-72
2023/10/24 12:26:34;;;;;;;8.93;7.18;;;;;;;12.12;100.00;100050.13;10414569;28;20154;-75
2023/10/24 12:31:35;;;;;;;9.45;7.40;;;;;;;12.31;100.00;100053.06;10398201;28;20041;-73
2023/10/24 12:36:36;;;;;;;8.75;6.95;;;;;;;12.74;100.00;100033.16;10417821;28;20124;-72
2023/10/24 12:41:36;;;;;;;9.85;6.80;;;;;;;13.03;100.00;100020.16;10416879;28;20045;-74
2023/10/24 12:46:37;;;;;;;10.27;7.88;;;;;;;12.98;100.00;100024.91;10416565;28;20088;-72
2023/10/24 12:51:37;;;;;;;10.85;7.70;;;;;;;12.90;100.00;100032.72;10415011;28;20068;-73
2023/10/24 12:56:37;;;;;;;10.85;7.13;;;;;;;12.96;100.00;100025.22;10416529;28;20052;-72
2023/10/24 13:01:38;;;;;;;9.13;7.50;;;;;;;13.05;100.00;100020.69;10416878;28;20068;-72
2023/10/24 13:06:38;;;;;;;10.23;7.22;;;;;;;13.07;100.00;100026.75;10415151;28;20041;-71
2023/10/24 13:11:41;;;;;;;11.15;7.05;;;;;;;13.02;100.00;100018.50;10413802;28;20034;-72
2023/10/24 13:16:42;;;;;;;10.32;7.95;;;;;;;12.89;100.00;100020.00;10414602;28;20429;-72
2023/10/24 13:21:42;;;;;;;14.05;7.50;;;;;;;12.54;100.00;99979.72;10413998;28;20045;-72
2023/10/24 13:26:45;;;;;;;10.63;7.18;;;;;;;12.60;100.00;100014.47;10415906;28;20037;-72
2023/10/24 13:31:45;;;;;;;10.95;8.07;;;;;;;12.41;100.00;100013.53;10413862;28;20041;-72
2023/10/24 13:36:46;;;;;;;10.90;8.20;;;;;;;12.32;100.00;100011.38;10416088;28;20049;-72
2023/10/24 13:41:47;;;;;;;10.30;8.07;;;;;;;12.32;100.00;100016.91;10412690;28;20042;-69
2023/10/24 13:46:48;;;;;;;10.30;8.43;;;;;;;12.34;100.00;100010.25;10413279;28;20058;-73
2023/10/24 13:51:49;;;;;;;13.32;8.68;;;;;;;12.32;100.00;100005.84;10415257;28;20060;-72
2023/10/24 13:56:49;;;;;;;12.57;8.77;;;;;;;12.40;100.00;100009.09;10415454;28;20472;-73
2023/10/24 14:01:50;;;;;;;9.05;7.68;;;;;;;12.52;100.00;100009.56;10414534;28;20060;-73
2023/10/24 14:06:50;;;;;;;10.85;7.68;;;;;;;12.58;100.00;100013.94;10413828;28;20037;-72
2023/10/24 14:11:51;;;;;;;10.13;7.90;;;;;;;12.51;100.00;100011.50;10407307;28;20046;-71
2023/10/24 14:16:53;;;;;;;11.05;7.30;;;;;;;12.35;100.00;99995.34;10404307;28;20029;-73
2023/10/24 14:21:54;;;;;;;12.57;8.63;;;;;;;12.40;100.00;100007.19;10409731;28;20481;-72
2023/10/24 14:26:55;;;;;;;13.63;8.35;;;;;;;12.39;100.00;100010.22;10415204;28;20046;-73
2023/10/24 14:31:55;;;;;;;16.48;8.90;;;;;;;12.38;100.00;99998.38;10421947;28;20490;-72
2023/10/24 14:36:56;;;;;;;13.88;8.95;;;;;;;12.24;100.00;99980.81;10421841;28;20045;-73
2023/10/24 14:41:59;;;;;;;12.32;8.57;;;;;;;12.34;100.00;99993.69;10419864;28;20034;-73
2023/10/24 14:47:00;;;;;;;12.32;8.57;;;;;;;12.23;100.00;99985.47;10419241;28;20041;-73
2023/10/24 14:52:00;;;;;;;10.70;8.38;;;;;;;12.22;100.00;99999.59;10403120;28;20037;-73
2023/10/24 14:57:01;;;;;;;10.65;8.20;;;;;;;12.12;100.00;99994.97;10420506;28;20495;-73
2023/10/24 15:02:01;;;;;;;10.52;8.52;;;;;;;12.03;100.00;99994.75;10421248;28;20486;-73
2023/10/24 15:07:01;;;;;;;10.70;7.93;;;;;;;11.96;100.00;99990.66;10419219;28;20052;-70
2023/10/24 15:12:03;;;;;;;11.60;8.15;;;;;;;11.90;100.00;99993.41;10417941;28;20046;-73
2023/10/24 15:17:04;;;;;;;13.40;9.75;;;;;;;11.84;100.00;99986.25;10413810;28;20041;-74
2023/10/24 15:22:04;;;;;;;11.23;8.85;;;;;;;11.80;100.00;99992.63;10413808;28;20452;-75
2023/10/24 15:27:05;;;;;;;15.57;10.50;;;;;;;11.74;100.00;99996.50;10410538;28;20034;-75
2023/10/24 15:32:08;;;;;;;16.45;11.85;;;;;;;11.66;100.00;100003.47;10407544;28;20042;-77
2023/10/24 15:37:08;;;;;;;14.40;10.00;;;;;;;11.60;100.00;99999.09;10408080;28;20412;-79
2023/10/24 15:42:09;;;;;;;17.80;10.07;;;;;;;11.53;100.00;99996.59;10413050;28;20038;-76
2023/10/24 15:47:09;;;;;;;14.60;9.75;;;;;;;11.51;100.00;99991.41;10416597;28;20394;-78
2023/10/24 15:52:10;;;;;;;17.45;10.88;;;;;;;11.47;100.00;99990.31;10416427;28;20034;-76
2023/10/24 15:57:10;;;;;;;12.52;9.85;;;;;;;11.42;100.00;99981.25;10417429;28;20486;-77
2023/10/24 16:02:12;;;;;;;16.55;10.93;;;;;;;11.35;100.00;99972.44;10416881;28;20049;-76
2023/10/24 16:07:12;;;;;;;11.95;9.60;;;;;;;11.29;100.00;99982.66;10410789;28;20060;-76
2023/10/24 16:12:12;;;;;;;20.65;11.05;;;;;;;11.17;100.00;99969.19;10405978;28;20111;-75
2023/10/24 16:17:13;;;;;;;9.90;8.05;;;;;;;11.22;100.00;99982.94;10404427;28;20041;-75
2023/10/24 16:22:13;;;;;;;11.77;8.27;;;;;;;11.19;100.00;99969.75;10412189;28;20144;-76
2023/10/24 16:27:14;;;;;;;17.95;8.10;;;;;;;11.15;100.00;99968.66;10407480;28;20129;-73
2023/10/24 16:32:14;;;;;;;11.32;8.02;;;;;;;11.10;100.00;99972.25;10403494;28;20037;-74
2023/10/24 16:37:15;;;;;;;9.68;7.22;;;;;;;11.05;100.00;99972.25;10410422;28;20041;-73
2023/10/24 16:42:16;;;;;;;14.38;8.30;;;;;;;10.96;100.00;99971.19;10413161;28;20037;-74
2023/10/24 16:47:17;;;;;;;11.50;8.00;;;;;;;10.92;100.00;99967.34;10401404;28;20053;-74
2023/10/24 16:52:18;;;;;;;10.95;7.10;;;;;;;10.84;100.00;99977.00;10421241;28;20053;-74
2023/10/24 16:57:18;;;;;;;9.00;6.90;;;;;;;10.81;100.00;99983.06;10438529;28;20047;-73
2023/10/24 17:02:21;;;;;;;8.52;6.63;;;;;;;10.74;100.00;99987.19;10426170;28;20041;-73
2023/10/24 17:07:21;;;;;;;8.88;6.18;;;;;;;10.64;100.00;99986.09;10437459;28;20044;-73
2023/10/24 17:12:22;;;;;;;7.88;6.05;;;;;;;10.65;100.00;99993.25;10439565;28;20038;-73
2023/10/24 17:17:22;;;;;;;6.00;4.90;;;;;;;10.62;100.00;99990.22;10429504;28;20041;-73
2023/10/24 17:22:27;;;;;;;6.68;5.43;;;;;;;10.62;100.00;100002.06;10427260;28;20057;-72
2023/10/24 17:27:28;;;;;;;9.13;4.80;;;;;;;10.62;100.00;99990.22;10432771;28;20076;-73
2023/10/24 17:32:31;;;;;;;6.32;4.07;;;;;;;10.59;100.00;100001.81;10427945;28;20037;-73
2023/10/24 17:37:31;;;;;;;5.43;4.10;;;;;;;10.53;100.00;99986.38;10434827;28;20037;-72
2023/10/24 17:42:32;;;;;;;4.30;3.17;;;;;;;10.58;100.00;100000.94;10430476;28;20040;-73
2023/10/24 17:47:33;;;;;;;5.15;3.33;;;;;;;10.28;100.00;99961.31;10424427;28;20870;-72
2023/10/24 17:52:33;;;;;;;4.57;3.65;;;;;;;10.55;100.00;100008.97;10421701;28;20056;-73
2023/10/24 17:57:34;;;;;;;4.90;3.08;;;;;;;10.52;100.00;100007.56;10428855;28;20041;-72
2023/10/24 18:02:34;;;;;;;4.25;2.95;;;;;;;10.49;100.00;100019.13;10418321;28;20045;-73
2023/10/24 18:07:34;;;;;;;4.15;2.97;;;;;;;10.47;100.00;100021.34;10428581;28;20052;-68
2023/10/24 18:12:35;;;;;;;6.47;4.10;;;;;;;10.45;100.00;100007.84;10423021;28;20041;-74
2023/10/24 18:17:40;;;;;;;4.93;4.13;;;;;;;10.43;100.00;100009.22;10422708;28;20034;-74
2023/10/24 18:22:40;;;;;;;6.30;4.65;;;;;;;10.36;100.00;100014.19;10425007;28;20041;-74
2023/10/24 18:27:41;;;;;;;8.50;4.85;;;;;;;10.36;100.00;100014.19;10431899;28;20076;-74
2023/10/24 18:32:41;;;;;;;8.02;5.65;;;;;;;10.34;100.00;99995.19;10438186;28;20156;-74
2023/10/24 18:37:41;;;;;;;9.18;6.10;;;;;;;10.30;100.00;100000.41;10434747;28;20033;-75
2023/10/24 18:42:43;;;;;;;12.45;6.90;;;;;;;10.28;100.00;99990.75;10431275;28;20038;-78
2023/10/24 18:47:44;;;;;;;10.18;6.60;;;;;;;10.27;100.00;99991.84;10413038;28;20053;-74
2023/10/24 18:52:44;;;;;;;12.00;7.38;;;;;;;10.25;100.00;99994.88;10432879;28;20048;-75
2023/10/24 18:57:45;;;;;;;11.93;7.97;;;;;;;10.11;100.00;99977.25;10432416;28;20079;-73
2023/10/24 19:02:45;;;;;;;9.48;7.13;;;;;;;10.22;100.00;99987.16;10408010;28;20034;-74
2023/10/24 19:07:46;;;;;;;11.90;9.02;;;;;;;10.18;100.00;99983.31;10423197;28;20083;-74
2023/10/24 19:12:47;;;;;;;13.13;8.32;;;;;;;10.18;100.00;99985.25;10432566;28;20045;-70
2023/10/24 19:17:48;;;;;;;15.20;9.48;;;;;;;10.15;100.00;99974.78;10417100;28;20045;-76
2023/10/24 19:22:49;;;;;;;11.55;8.63;;;;;;;10.12;100.00;99978.91;10420921;28;20417;-73
2023/10/24 19:27:50;;;;;;;14.35;9.13;;;;;;;10.08;100.00;99980.53;10420469;28;20041;-73
2023/10/24 19:32:51;;;;;;;14.45;8.93;;;;;;;10.00;100.00;99961.84;10410230;28;20037;-74
2023/10/24 19:37:51;;;;;;;13.48;9.50;;;;;;;10.02;100.00;99976.94;10391934;28;20045;-72
2023/10/24 19:42:52;;;;;;;12.90;9.05;;;;;;;10.05;100.00;99975.59;10394573;28;20398;-73
2023/10/24 19:47:55;;;;;;;14.80;9.02;;;;;;;10.03;100.00;99977.81;10395076;28;20037;-73
2023/10/24 19:52:56;;;;;;;14.23;10.05;;;;;;;9.99;100.00;99973.94;10377774;28;20076;-73
2023/10/24 19:57:56;;;;;;;14.80;9.40;;;;;;;9.95;100.00;99981.09;10395470;28;20093;-74
2023/10/24 20:02:57;;;;;;;13.48;8.98;;;;;;;9.86;100.00;99989.88;10393893;28;20073;-73
2023/10/24 20:07:58;;;;;;;13.55;9.32;;;;;;;9.84;100.00;99974.75;10391868;28;20050;-74
2023/10/24 20:13:00;;;;;;;13.35;9.20;;;;;;;9.79;100.00;99974.72;10390476;28;20527;-74
2023/10/24 20:18:00;;;;;;;12.45;8.68;;;;;;;9.69;100.00;99970.00;10388862;28;20049;-73
2023/10/24 20:23:01;;;;;;;16.67;8.98;;;;;;;9.74;100.00;99977.47;10379461;28;20045;-73
2023/10/24 20:28:02;;;;;;;14.70;9.30;;;;;;;9.72;100.00;99971.41;10420883;28;20063;-72
2023/10/24 20:33:02;;;;;;;14.13;8.57;;;;;;;9.74;100.00;99977.47;10427333;28;20038;-74
2023/10/24 20:38:03;;;;;;;15.73;10.27;;;;;;;9.75;100.00;99968.09;10430818;28;20045;-71
2023/10/24 20:43:04;;;;;;;14.48;9.73;;;;;;;9.72;100.00;99960.41;10427613;28;20047;-74
2023/10/24 20:48:05;;;;;;;14.68;9.15;;;;;;;9.69;100.00;99961.78;10432388;28;20061;-73
2023/10/24 20:53:05;;;;;;;16.60;10.73;;;;;;;9.68;100.00;99954.63;10429504;28;20093;-73
2023/10/24 20:58:06;;;;;;;15.23;10.18;;;;;;;9.69;100.00;99950.78;10427236;28;20037;-73
2023/10/24 21:03:07;;;;;;;17.95;11.43;;;;;;;9.64;100.00;99940.59;10429705;28;20327;-73
2023/10/24 21:08:07;;;;;;;12.38;8.85;;;;;;;9.59;100.00;99957.09;10423488;28;20064;-73
2023/10/24 21:13:08;;;;;;;15.32;10.20;;;;;;;9.54;100.00;99957.06;10423337;28;20040;-74
2023/10/24 21:18:08;;;;;;;22.60;10.27;;;;;;;9.43;100.00;99947.16;10423951;28;20040;-73
2023/10/24 21:23:09;;;;;;;16.65;9.80;;;;;;;9.36;100.00;99939.13;10432559;28;20067;-74
2023/10/24 21:28:09;;;;;;;16.33;10.13;;;;;;;9.43;100.00;99960.88;10422412;28;20045;-72
2023/10/24 21:33:10;;;;;;;18.63;10.32;;;;;;;9.31;100.00;99950.13;10428683;28;20056;-73
2023/10/24 21:38:10;;;;;;;22.20;13.15;;;;;;;9.35;100.00;99956.72;10400469;28;20057;-73
2023/10/24 21:43:10;;;;;;;18.23;10.27;;;;;;;9.32;100.00;99960.00;10427180;28;20042;-72
2023/10/24 21:48:11;;;;;;;23.58;10.32;;;;;;;8.94;100.00;99898.88;10432977;28;20128;-72
2023/10/24 21:53:11;;;;;;;17.27;10.32;;;;;;;9.22;100.00;99946.22;10438274;28;20034;-73
2023/10/24 21:58:12;;;;;;;16.63;10.05;;;;;;;9.14;100.00;99939.34;10434833;28;20045;-72
2023/10/24 22:03:12;;;;;;;18.55;10.43;;;;;;;9.13;100.00;99939.59;10437054;28;20033;-72
2023/10/24 22:08:13;;;;;;;14.82;9.40;;;;;;;9.13;100.00;99937.66;10433849;28;20111;-73
2023/10/24 22:13:13;;;;;;;17.58;11.30;;;;;;;9.08;100.00;99935.72;10439839;28;20552;-72
2023/10/24 22:18:13;;;;;;;21.42;10.50;;;;;;;9.02;100.00;99931.31;10436269;28;20041;-73
2023/10/24 22:23:14;;;;;;;21.88;11.35;;;;;;;9.02;100.00;99923.06;10433854;28;20529;-72
2023/10/24 22:28:14;;;;;;;15.63;9.40;;;;;;;8.99;100.00;99929.13;10438525;28;20546;-72
2023/10/24 22:33:15;;;;;;;18.40;10.57;;;;;;;9.00;100.00;99916.19;10434454;28;20042;-73
2023/10/24 22:38:15;;;;;;;17.60;10.45;;;;;;;9.00;100.00;99928.00;10426191;28;20038;-74